sensor_id;sensor_type;location;lat;lon;timestamp;temperature;humidity
41939;DHT22;23057;48.554;14.454;2023-03-23T00:02:27;5.80;99.90
41939;DHT22;23057;48.554;14.454;2023-03-23T00:05:05;5.80;99.90
41939;DHT22;23057;48.554;14.454;2023-03-23T00:07:37;5.70;99.90
41939;DHT22;23057;48.554;14.454;2023-03-23T00:10:08;5.70;99.90
41939;DHT22;23057;48.554;14.454;2023-03-23T00:12:39;5.80;99.90
41939;DHT22;23057;48.554;14.454;2023-03-23T00:15:12;5.80;99.90
41939;DHT22;23057;48.554;14.454;2023-03-23T00:17:43;5.70;99.90
41939;DHT22;23057;48.554;14.454;2023-03-23T00:20:14;5.60;99.90
41939;DHT22;23057;48.554;14.454;2023-03-23T00:22:44;5.70;99.90
41939;DHT22;23057;48.554;14.454;2023-03-23T00:25:15;5.70;99.90
41939;DHT22;23057;48.554;14.454;2023-03-23T00:27:46;5.70;99.90
41939;DHT22;23057;48.554;14.454;2023-03-23T00:30:17;5.80;99.90
41939;DHT22;23057;48.554;14.454;2023-03-23T00:32:48;5.80;99.90
41939;DHT22;23057;48.554;14.454;2023-03-23T00:35:21;5.80;99.90
41939;DHT22;23057;48.554;14.454;2023-03-23T00:37:51;5.80;99.90
41939;DHT22;23057;48.554;14.454;2023-03-23T00:40:22;5.80;99.90
41939;DHT22;23057;48.554;14.454;2023-03-23T00:42:53;5.80;99.90
41939;DHT22;23057;48.554;14.454;2023-03-23T00:45:24;5.80;99.90
41939;DHT22;23057;48.554;14.454;2023-03-23T00:47:55;5.80;99.90
41939;DHT22;23057;48.554;14.454;2023-03-23T00:50:27;5.70;99.90
41939;DHT22;23057;48.554;14.454;2023-03-23T00:52:58;5.70;99.90
41939;DHT22;23057;48.554;14.454;2023-03-23T00:55:29;5.70;99.90
41939;DHT22;23057;48.554;14.454;2023-03-23T00:58:00;6.00;99.90
41939;DHT22;23057;48.554;14.454;2023-03-23T01:00:31;6.00;99.90
41939;DHT22;23057;48.554;14.454;2023-03-23T01:03:02;5.70;99.90
41939;DHT22;23057;48.554;14.454;2023-03-23T01:05:35;5.60;99.90
41939;DHT22;23057;48.554;14.454;2023-03-23T01:08:07;5.40;99.90
41939;DHT22;23057;48.554;14.454;2023-03-23T01:10:38;5.20;99.90
41939;DHT22;23057;48.554;14.454;2023-03-23T01:13:10;5.10;99.90
41939;DHT22;23057;48.554;14.454;2023-03-23T01:15:42;5.10;99.90
41939;DHT22;23057;48.554;14.454;2023-03-23T01:18:13;5.10;99.90
41939;DHT22;23057;48.554;14.454;2023-03-23T01:20:44;5.20;99.90
41939;DHT22;23057;48.554;14.454;2023-03-23T01:23:15;5.30;99.90
41939;DHT22;23057;48.554;14.454;2023-03-23T01:25:46;5.40;99.90
41939;DHT22;23057;48.554;14.454;2023-03-23T01:28:17;5.50;99.90
41939;DHT22;23057;48.554;14.454;2023-03-23T01:30:47;5.70;99.90
41939;DHT22;23057;48.554;14.454;2023-03-23T01:33:18;5.80;99.90
41939;DHT22;23057;48.554;14.454;2023-03-23T01:35:49;5.90;99.90
41939;DHT22;23057;48.554;14.454;2023-03-23T01:38:20;6.00;99.90
41939;DHT22;23057;48.554;14.454;2023-03-23T01:40:51;5.90;99.90
41939;DHT22;23057;48.554;14.454;2023-03-23T01:43:22;5.70;99.90
41939;DHT22;23057;48.554;14.454;2023-03-23T01:45:53;5.90;99.90
41939;DHT22;23057;48.554;14.454;2023-03-23T01:48:25;5.90;99.90
41939;DHT22;23057;48.554;14.454;2023-03-23T01:51:04;5.70;99.90
41939;DHT22;23057;48.554;14.454;2023-03-23T01:53:43;5.70;99.90
41939;DHT22;23057;48.554;14.454;2023-03-23T01:56:21;5.60;99.90
41939;DHT22;23057;48.554;14.454;2023-03-23T01:58:57;5.60;99.90
41939;DHT22;23057;48.554;14.454;2023-03-23T02:01:27;5.50;99.90
41939;DHT22;23057;48.554;14.454;2023-03-23T02:03:59;5.40;99.90
41939;DHT22;23057;48.554;14.454;2023-03-23T02:06:29;5.50;99.90
41939;DHT22;23057;48.554;14.454;2023-03-23T02:09:00;5.50;99.90
41939;DHT22;23057;48.554;14.454;2023-03-23T02:11:32;5.40;99.90
41939;DHT22;23057;48.554;14.454;2023-03-23T02:14:03;5.30;99.90
41939;DHT22;23057;48.554;14.454;2023-03-23T02:19:26;5.20;99.90
41939;DHT22;23057;48.554;14.454;2023-03-23T02:28:19;5.10;99.90
41939;DHT22;23057;48.554;14.454;2023-03-23T02:31:29;5.10;99.90
41939;DHT22;23057;48.554;14.454;2023-03-23T02:35:01;5.20;99.90
41939;DHT22;23057;48.554;14.454;2023-03-23T02:37:21;5.20;99.90
41939;DHT22;23057;48.554;14.454;2023-03-23T02:40:30;5.20;99.90
41939;DHT22;23057;48.554;14.454;2023-03-23T02:43:10;5.20;99.90
41939;DHT22;23057;48.554;14.454;2023-03-23T02:45:47;5.20;99.90
41939;DHT22;23057;48.554;14.454;2023-03-23T02:48:21;5.30;99.90
41939;DHT22;23057;48.554;14.454;2023-03-23T02:50:58;5.40;99.90
41939;DHT22;23057;48.554;14.454;2023-03-23T02:53:33;5.30;99.90
41939;DHT22;23057;48.554;14.454;2023-03-23T02:56:08;5.20;99.90
41939;DHT22;23057;48.554;14.454;2023-03-23T02:58:42;5.30;99.90
41939;DHT22;23057;48.554;14.454;2023-03-23T03:01:14;5.40;99.90
41939;DHT22;23057;48.554;14.454;2023-03-23T03:04:11;5.50;99.90
41939;DHT22;23057;48.554;14.454;2023-03-23T03:12:51;5.50;99.90
41939;DHT22;23057;48.554;14.454;2023-03-23T03:21:17;5.20;99.90
41939;DHT22;23057;48.554;14.454;2023-03-23T03:23:56;5.30;99.90
41939;DHT22;23057;48.554;14.454;2023-03-23T03:26:31;5.30;99.90
41939;DHT22;23057;48.554;14.454;2023-03-23T03:29:05;5.30;99.90
41939;DHT22;23057;48.554;14.454;2023-03-23T03:31:38;5.30;99.90
41939;DHT22;23057;48.554;14.454;2023-03-23T03:34:15;5.30;99.90
41939;DHT22;23057;48.554;14.454;2023-03-23T03:36:47;5.30;99.90
41939;DHT22;23057;48.554;14.454;2023-03-23T03:39:20;5.40;99.90
41939;DHT22;23057;48.554;14.454;2023-03-23T03:41:51;5.50;99.90
41939;DHT22;23057;48.554;14.454;2023-03-23T03:44:22;5.40;99.90
41939;DHT22;23057;48.554;14.454;2023-03-23T03:46:53;5.30;99.90
41939;DHT22;23057;48.554;14.454;2023-03-23T03:49:24;5.30;99.90
41939;DHT22;23057;48.554;14.454;2023-03-23T03:51:55;5.20;99.90
41939;DHT22;23057;48.554;14.454;2023-03-23T03:54:26;5.30;99.90
41939;DHT22;23057;48.554;14.454;2023-03-23T03:56:57;5.20;99.90
41939;DHT22;23057;48.554;14.454;2023-03-23T03:59:28;5.10;99.90
41939;DHT22;23057;48.554;14.454;2023-03-23T04:02:00;5.10;99.90
41939;DHT22;23057;48.554;14.454;2023-03-23T04:04:32;5.10;99.90
41939;DHT22;23057;48.554;14.454;2023-03-23T04:07:03;5.20;99.90
41939;DHT22;23057;48.554;14.454;2023-03-23T04:09:35;5.30;99.90
41939;DHT22;23057;48.554;14.454;2023-03-23T04:12:07;5.40;99.90
41939;DHT22;23057;48.554;14.454;2023-03-23T04:14:37;5.50;99.90
41939;DHT22;23057;48.554;14.454;2023-03-23T04:17:08;5.50;99.90
41939;DHT22;23057;48.554;14.454;2023-03-23T04:19:40;5.50;99.90
41939;DHT22;23057;48.554;14.454;2023-03-23T04:22:11;5.50;99.90
41939;DHT22;23057;48.554;14.454;2023-03-23T04:24:42;5.40;99.90
41939;DHT22;23057;48.554;14.454;2023-03-23T04:27:12;5.30;99.90
41939;DHT22;23057;48.554;14.454;2023-03-23T04:29:43;5.30;99.90
41939;DHT22;23057;48.554;14.454;2023-03-23T04:32:19;5.30;99.90
41939;DHT22;23057;48.554;14.454;2023-03-23T04:34:51;5.30;99.90
41939;DHT22;23057;48.554;14.454;2023-03-23T04:37:22;5.20;99.90
41939;DHT22;23057;48.554;14.454;2023-03-23T04:39:55;5.20;99.90
41939;DHT22;23057;48.554;14.454;2023-03-23T04:42:39;5.10;99.90
41939;DHT22;23057;48.554;14.454;2023-03-23T04:45:12;5.10;99.90
41939;DHT22;23057;48.554;14.454;2023-03-23T04:47:46;5.00;99.90
41939;DHT22;23057;48.554;14.454;2023-03-23T04:50:24;4.90;99.90
41939;DHT22;23057;48.554;14.454;2023-03-23T04:53:01;5.10;99.90
41939;DHT22;23057;48.554;14.454;2023-03-23T04:55:35;5.20;99.90
41939;DHT22;23057;48.554;14.454;2023-03-23T04:58:06;5.30;99.90
41939;DHT22;23057;48.554;14.454;2023-03-23T05:00:37;5.20;99.90
41939;DHT22;23057;48.554;14.454;2023-03-23T05:03:09;5.30;99.90
41939;DHT22;23057;48.554;14.454;2023-03-23T05:05:41;5.30;99.90
41939;DHT22;23057;48.554;14.454;2023-03-23T05:08:18;5.40;99.90
41939;DHT22;23057;48.554;14.454;2023-03-23T05:10:50;5.50;99.90
41939;DHT22;23057;48.554;14.454;2023-03-23T05:13:27;5.60;99.90
41939;DHT22;23057;48.554;14.454;2023-03-23T05:16:02;5.80;99.90
41939;DHT22;23057;48.554;14.454;2023-03-23T05:18:35;5.90;99.90
41939;DHT22;23057;48.554;14.454;2023-03-23T05:21:06;5.90;99.90
41939;DHT22;23057;48.554;14.454;2023-03-23T05:23:37;5.80;99.90
41939;DHT22;23057;48.554;14.454;2023-03-23T05:26:07;5.80;99.90
41939;DHT22;23057;48.554;14.454;2023-03-23T05:28:38;5.70;99.90
41939;DHT22;23057;48.554;14.454;2023-03-23T05:31:12;5.60;99.90
41939;DHT22;23057;48.554;14.454;2023-03-23T05:33:43;5.40;99.90
41939;DHT22;23057;48.554;14.454;2023-03-23T05:36:14;5.50;99.90
41939;DHT22;23057;48.554;14.454;2023-03-23T05:38:45;5.60;99.90
41939;DHT22;23057;48.554;14.454;2023-03-23T05:41:17;5.80;99.90
41939;DHT22;23057;48.554;14.454;2023-03-23T05:43:48;5.70;99.90
41939;DHT22;23057;48.554;14.454;2023-03-23T05:46:19;5.50;99.90
41939;DHT22;23057;48.554;14.454;2023-03-23T05:48:50;5.50;99.90
41939;DHT22;23057;48.554;14.454;2023-03-23T05:51:20;5.80;99.90
41939;DHT22;23057;48.554;14.454;2023-03-23T05:53:51;5.90;99.90
41939;DHT22;23057;48.554;14.454;2023-03-23T05:56:22;6.00;99.90
41939;DHT22;23057;48.554;14.454;2023-03-23T05:58:56;5.90;99.90
41939;DHT22;23057;48.554;14.454;2023-03-23T06:01:28;5.90;99.90
41939;DHT22;23057;48.554;14.454;2023-03-23T06:03:59;5.90;99.90
41939;DHT22;23057;48.554;14.454;2023-03-23T06:06:30;6.00;99.90
41939;DHT22;23057;48.554;14.454;2023-03-23T06:09:02;6.10;99.90
41939;DHT22;23057;48.554;14.454;2023-03-23T06:11:33;6.30;99.90
41939;DHT22;23057;48.554;14.454;2023-03-23T06:14:04;6.40;99.90
41939;DHT22;23057;48.554;14.454;2023-03-23T06:16:35;6.60;99.90
41939;DHT22;23057;48.554;14.454;2023-03-23T06:19:06;6.80;99.90
41939;DHT22;23057;48.554;14.454;2023-03-23T06:21:36;7.10;99.90
41939;DHT22;23057;48.554;14.454;2023-03-23T06:24:08;7.20;99.90
41939;DHT22;23057;48.554;14.454;2023-03-23T06:26:39;7.30;99.90
41939;DHT22;23057;48.554;14.454;2023-03-23T06:29:11;7.30;99.90
41939;DHT22;23057;48.554;14.454;2023-03-23T06:31:43;7.50;99.90
41939;DHT22;23057;48.554;14.454;2023-03-23T06:34:18;7.70;99.90
41939;DHT22;23057;48.554;14.454;2023-03-23T06:36:49;7.80;99.90
41939;DHT22;23057;48.554;14.454;2023-03-23T06:39:19;7.80;99.90
41939;DHT22;23057;48.554;14.454;2023-03-23T06:41:51;8.00;99.90
41939;DHT22;23057;48.554;14.454;2023-03-23T06:44:21;8.20;99.90
41939;DHT22;23057;48.554;14.454;2023-03-23T06:46:52;8.40;99.90
41939;DHT22;23057;48.554;14.454;2023-03-23T06:49:23;8.60;99.90
41939;DHT22;23057;48.554;14.454;2023-03-23T06:51:54;8.70;99.90
41939;DHT22;23057;48.554;14.454;2023-03-23T06:54:26;8.90;99.90
41939;DHT22;23057;48.554;14.454;2023-03-23T06:56:57;9.10;99.90
41939;DHT22;23057;48.554;14.454;2023-03-23T06:59:28;8.90;99.90
41939;DHT22;23057;48.554;14.454;2023-03-23T07:02:00;9.00;99.90
41939;DHT22;23057;48.554;14.454;2023-03-23T07:04:31;9.10;99.90
41939;DHT22;23057;48.554;14.454;2023-03-23T07:07:02;9.50;99.90
41939;DHT22;23057;48.554;14.454;2023-03-23T07:09:33;9.70;99.90
41939;DHT22;23057;48.554;14.454;2023-03-23T07:12:04;10.20;99.90
41939;DHT22;23057;48.554;14.454;2023-03-23T07:14:36;10.80;99.90
41939;DHT22;23057;48.554;14.454;2023-03-23T07:17:06;11.20;99.90
41939;DHT22;23057;48.554;14.454;2023-03-23T07:19:38;11.80;99.90
41939;DHT22;23057;48.554;14.454;2023-03-23T07:22:08;12.10;99.90
41939;DHT22;23057;48.554;14.454;2023-03-23T07:24:39;12.30;1.00
41939;DHT22;23057;48.554;14.454;2023-03-23T07:27:10;12.50;99.90
41939;DHT22;23057;48.554;14.454;2023-03-23T07:29:41;13.00;99.90
41939;DHT22;23057;48.554;14.454;2023-03-23T07:32:12;13.10;99.90
41939;DHT22;23057;48.554;14.454;2023-03-23T07:34:43;12.80;99.90
41939;DHT22;23057;48.554;14.454;2023-03-23T07:37:14;12.70;99.90
41939;DHT22;23057;48.554;14.454;2023-03-23T07:39:44;12.30;99.90
41939;DHT22;23057;48.554;14.454;2023-03-23T07:42:15;11.80;55.70
41939;DHT22;23057;48.554;14.454;2023-03-23T07:44:46;11.50;50.60
41939;DHT22;23057;48.554;14.454;2023-03-23T07:47:17;11.30;65.10
41939;DHT22;23057;48.554;14.454;2023-03-23T07:49:48;11.20;32.20
41939;DHT22;23057;48.554;14.454;2023-03-23T07:52:18;11.30;90.80
41939;DHT22;23057;48.554;14.454;2023-03-23T07:54:50;11.30;62.00
41939;DHT22;23057;48.554;14.454;2023-03-23T07:57:21;11.70;7.90
41939;DHT22;23057;48.554;14.454;2023-03-23T07:59:52;12.30;1.00
41939;DHT22;23057;48.554;14.454;2023-03-23T08:02:23;13.10;99.90
41939;DHT22;23057;48.554;14.454;2023-03-23T08:04:54;13.80;99.90
41939;DHT22;23057;48.554;14.454;2023-03-23T08:07:26;14.30;99.90
41939;DHT22;23057;48.554;14.454;2023-03-23T08:09:57;14.60;83.00
41939;DHT22;23057;48.554;14.454;2023-03-23T08:12:28;14.60;24.60
41939;DHT22;23057;48.554;14.454;2023-03-23T08:14:59;14.40;10.30
41939;DHT22;23057;48.554;14.454;2023-03-23T08:17:30;14.60;1.00
41939;DHT22;23057;48.554;14.454;2023-03-23T08:20:01;15.30;1.00
41939;DHT22;23057;48.554;14.454;2023-03-23T08:22:39;15.90;1.00
41939;DHT22;23057;48.554;14.454;2023-03-23T08:25:13;15.90;1.00
41939;DHT22;23057;48.554;14.454;2023-03-23T08:27:44;15.80;1.00
41939;DHT22;23057;48.554;14.454;2023-03-23T08:30:17;15.50;1.00
41939;DHT22;23057;48.554;14.454;2023-03-23T08:32:52;16.00;1.00
41939;DHT22;23057;48.554;14.454;2023-03-23T08:35:23;16.30;1.00
41939;DHT22;23057;48.554;14.454;2023-03-23T08:37:54;15.80;1.00
41939;DHT22;23057;48.554;14.454;2023-03-23T08:40:25;15.40;1.00
41939;DHT22;23057;48.554;14.454;2023-03-23T08:42:57;15.30;1.00
41939;DHT22;23057;48.554;14.454;2023-03-23T08:45:29;15.20;1.00
41939;DHT22;23057;48.554;14.454;2023-03-23T08:48:00;15.10;1.00
41939;DHT22;23057;48.554;14.454;2023-03-23T08:50:31;15.30;1.00
41939;DHT22;23057;48.554;14.454;2023-03-23T08:53:02;15.10;99.90
41939;DHT22;23057;48.554;14.454;2023-03-23T08:55:33;15.30;1.00
41939;DHT22;23057;48.554;14.454;2023-03-23T08:58:03;15.50;99.90
41939;DHT22;23057;48.554;14.454;2023-03-23T09:00:34;15.60;99.90
41939;DHT22;23057;48.554;14.454;2023-03-23T09:03:05;15.90;99.90
41939;DHT22;23057;48.554;14.454;2023-03-23T09:05:37;15.50;99.90
41939;DHT22;23057;48.554;14.454;2023-03-23T09:08:09;15.30;99.90
41939;DHT22;23057;48.554;14.454;2023-03-23T09:10:40;15.10;99.90
41939;DHT22;23057;48.554;14.454;2023-03-23T09:13:10;15.50;99.90
41939;DHT22;23057;48.554;14.454;2023-03-23T09:15:41;15.70;99.90
41939;DHT22;23057;48.554;14.454;2023-03-23T09:18:12;15.90;99.90
41939;DHT22;23057;48.554;14.454;2023-03-23T09:20:43;16.00;99.90
41939;DHT22;23057;48.554;14.454;2023-03-23T09:23:16;15.90;99.90
41939;DHT22;23057;48.554;14.454;2023-03-23T09:25:47;15.80;99.90
41939;DHT22;23057;48.554;14.454;2023-03-23T09:28:19;15.70;99.90
41939;DHT22;23057;48.554;14.454;2023-03-23T09:30:50;15.70;99.90
41939;DHT22;23057;48.554;14.454;2023-03-23T09:33:21;16.00;99.90
41939;DHT22;23057;48.554;14.454;2023-03-23T09:35:52;16.10;99.90
41939;DHT22;23057;48.554;14.454;2023-03-23T09:38:23;15.90;99.90
41939;DHT22;23057;48.554;14.454;2023-03-23T09:40:58;15.90;99.90
41939;DHT22;23057;48.554;14.454;2023-03-23T09:44:16;16.10;99.90
41939;DHT22;23057;48.554;14.454;2023-03-23T09:47:24;15.40;99.90
41939;DHT22;23057;48.554;14.454;2023-03-23T09:55:54;15.50;99.90
41939;DHT22;23057;48.554;14.454;2023-03-23T09:58:27;15.70;99.90
41939;DHT22;23057;48.554;14.454;2023-03-23T10:01:07;16.10;99.90
41939;DHT22;23057;48.554;14.454;2023-03-23T10:03:52;16.00;99.90
41939;DHT22;23057;48.554;14.454;2023-03-23T10:06:35;15.90;99.90
41939;DHT22;23057;48.554;14.454;2023-03-23T10:09:08;16.00;99.90
41939;DHT22;23057;48.554;14.454;2023-03-23T10:11:57;15.90;99.90
41939;DHT22;23057;48.554;14.454;2023-03-23T10:17:45;15.60;99.90
41939;DHT22;23057;48.554;14.454;2023-03-23T10:29:31;15.80;1.00
41939;DHT22;23057;48.554;14.454;2023-03-23T10:32:10;15.90;1.00
41939;DHT22;23057;48.554;14.454;2023-03-23T10:34:47;16.10;1.00
41939;DHT22;23057;48.554;14.454;2023-03-23T10:37:29;16.50;1.00
41939;DHT22;23057;48.554;14.454;2023-03-23T10:40:12;16.30;99.90
41939;DHT22;23057;48.554;14.454;2023-03-23T10:42:49;15.80;99.90
41939;DHT22;23057;48.554;14.454;2023-03-23T10:45:26;15.90;99.90
41939;DHT22;23057;48.554;14.454;2023-03-23T10:51:11;16.10;99.90
41939;DHT22;23057;48.554;14.454;2023-03-23T10:53:51;16.50;99.90
41939;DHT22;23057;48.554;14.454;2023-03-23T10:56:29;17.10;99.90
41939;DHT22;23057;48.554;14.454;2023-03-23T10:59:21;17.40;99.90
41939;DHT22;23057;48.554;14.454;2023-03-23T11:02:00;17.50;99.90
41939;DHT22;23057;48.554;14.454;2023-03-23T11:04:44;18.00;99.90
41939;DHT22;23057;48.554;14.454;2023-03-23T11:07:18;17.70;99.90
41939;DHT22;23057;48.554;14.454;2023-03-23T11:09:57;17.80;99.90
41939;DHT22;23057;48.554;14.454;2023-03-23T11:12:45;17.90;99.90
41939;DHT22;23057;48.554;14.454;2023-03-23T11:15:25;17.90;99.90
41939;DHT22;23057;48.554;14.454;2023-03-23T11:18:04;17.80;99.90
41939;DHT22;23057;48.554;14.454;2023-03-23T11:20:48;17.80;99.90
41939;DHT22;23057;48.554;14.454;2023-03-23T11:23:29;18.20;99.90
41939;DHT22;23057;48.554;14.454;2023-03-23T11:26:15;18.80;99.90
41939;DHT22;23057;48.554;14.454;2023-03-23T11:28:58;18.80;99.90
41939;DHT22;23057;48.554;14.454;2023-03-23T11:31:42;18.40;99.90
41939;DHT22;23057;48.554;14.454;2023-03-23T11:34:46;18.80;99.90
41939;DHT22;23057;48.554;14.454;2023-03-23T11:37:41;19.20;99.90
41939;DHT22;23057;48.554;14.454;2023-03-23T11:40:19;19.50;99.90
41939;DHT22;23057;48.554;14.454;2023-03-23T11:43:12;18.60;99.90
41939;DHT22;23057;48.554;14.454;2023-03-23T11:45:52;18.20;99.90
41939;DHT22;23057;48.554;14.454;2023-03-23T11:51:42;19.10;99.90
41939;DHT22;23057;48.554;14.454;2023-03-23T11:54:30;19.40;99.90
41939;DHT22;23057;48.554;14.454;2023-03-23T11:57:08;19.10;99.90
41939;DHT22;23057;48.554;14.454;2023-03-23T11:59:44;18.70;99.90
41939;DHT22;23057;48.554;14.454;2023-03-23T12:02:32;18.80;99.90
41939;DHT22;23057;48.554;14.454;2023-03-23T12:08:21;19.00;99.90
41939;DHT22;23057;48.554;14.454;2023-03-23T12:10:58;18.80;99.90
41939;DHT22;23057;48.554;14.454;2023-03-23T12:25:34;18.40;99.90
41939;DHT22;23057;48.554;14.454;2023-03-23T12:31:47;18.70;99.90
41939;DHT22;23057;48.554;14.454;2023-03-23T12:34:41;19.10;99.90
41939;DHT22;23057;48.554;14.454;2023-03-23T12:43:43;18.90;99.90
41939;DHT22;23057;48.554;14.454;2023-03-23T12:52:42;19.10;99.90
41939;DHT22;23057;48.554;14.454;2023-03-23T12:55:47;19.00;99.90
41939;DHT22;23057;48.554;14.454;2023-03-23T12:58:35;19.10;99.90
41939;DHT22;23057;48.554;14.454;2023-03-23T13:01:24;19.10;99.90
41939;DHT22;23057;48.554;14.454;2023-03-23T13:04:08;19.50;99.90
41939;DHT22;23057;48.554;14.454;2023-03-23T13:06:47;19.30;99.90
41939;DHT22;23057;48.554;14.454;2023-03-23T13:09:24;19.30;99.90
41939;DHT22;23057;48.554;14.454;2023-03-23T13:12:03;19.40;99.90
41939;DHT22;23057;48.554;14.454;2023-03-23T13:14:49;19.00;99.90
41939;DHT22;23057;48.554;14.454;2023-03-23T13:23:41;18.90;99.90
41939;DHT22;23057;48.554;14.454;2023-03-23T13:26:19;19.10;99.90
41939;DHT22;23057;48.554;14.454;2023-03-23T13:31:28;18.70;99.90
41939;DHT22;23057;48.554;14.454;2023-03-23T13:36:57;18.90;99.90
41939;DHT22;23057;48.554;14.454;2023-03-23T13:39:36;18.80;99.90
41939;DHT22;23057;48.554;14.454;2023-03-23T13:42:20;18.70;99.90
41939;DHT22;23057;48.554;14.454;2023-03-23T13:48:02;19.10;99.90
41939;DHT22;23057;48.554;14.454;2023-03-23T13:50:56;19.10;99.90
41939;DHT22;23057;48.554;14.454;2023-03-23T13:53:44;18.90;99.90
41939;DHT22;23057;48.554;14.454;2023-03-23T13:56:31;18.80;99.90
41939;DHT22;23057;48.554;14.454;2023-03-23T13:59:16;18.80;99.90
41939;DHT22;23057;48.554;14.454;2023-03-23T14:03:02;18.70;99.90
41939;DHT22;23057;48.554;14.454;2023-03-23T14:05:08;18.60;99.90
41939;DHT22;23057;48.554;14.454;2023-03-23T14:07:54;18.50;99.90
41939;DHT22;23057;48.554;14.454;2023-03-23T14:13:59;18.40;99.90
41939;DHT22;23057;48.554;14.454;2023-03-23T14:22:00;18.10;99.90
41939;DHT22;23057;48.554;14.454;2023-03-23T14:24:33;18.10;99.90
41939;DHT22;23057;48.554;14.454;2023-03-23T14:27:12;17.80;99.90
41939;DHT22;23057;48.554;14.454;2023-03-23T14:30:05;17.90;99.90
41939;DHT22;23057;48.554;14.454;2023-03-23T14:32:48;17.80;99.90
41939;DHT22;23057;48.554;14.454;2023-03-23T14:35:26;17.90;99.90
41939;DHT22;23057;48.554;14.454;2023-03-23T14:38:00;17.90;99.90
41939;DHT22;23057;48.554;14.454;2023-03-23T14:40:32;17.80;99.90
41939;DHT22;23057;48.554;14.454;2023-03-23T14:43:04;17.80;99.90
41939;DHT22;23057;48.554;14.454;2023-03-23T14:45:36;17.80;99.90
41939;DHT22;23057;48.554;14.454;2023-03-23T14:48:07;17.70;99.90
41939;DHT22;23057;48.554;14.454;2023-03-23T14:50:50;17.80;99.90
41939;DHT22;23057;48.554;14.454;2023-03-23T14:53:44;18.00;99.90
41939;DHT22;23057;48.554;14.454;2023-03-23T14:56:15;18.00;99.90
41939;DHT22;23057;48.554;14.454;2023-03-23T14:58:50;17.80;99.90
41939;DHT22;23057;48.554;14.454;2023-03-23T15:01:23;17.50;99.90
41939;DHT22;23057;48.554;14.454;2023-03-23T15:04:09;17.40;99.90
41939;DHT22;23057;48.554;14.454;2023-03-23T15:06:54;17.40;99.90
41939;DHT22;23057;48.554;14.454;2023-03-23T15:09:30;17.40;99.90
41939;DHT22;23057;48.554;14.454;2023-03-23T15:12:03;17.30;99.90
41939;DHT22;23057;48.554;14.454;2023-03-23T15:14:37;17.30;99.90
41939;DHT22;23057;48.554;14.454;2023-03-23T15:17:19;17.20;99.90
41939;DHT22;23057;48.554;14.454;2023-03-23T15:19:54;17.20;99.90
41939;DHT22;23057;48.554;14.454;2023-03-23T15:22:29;17.20;99.90
41939;DHT22;23057;48.554;14.454;2023-03-23T15:25:03;17.20;99.90
41939;DHT22;23057;48.554;14.454;2023-03-23T15:27:43;17.00;99.90
41939;DHT22;23057;48.554;14.454;2023-03-23T15:32:59;17.10;99.90
41939;DHT22;23057;48.554;14.454;2023-03-23T15:35:41;17.10;99.90
41939;DHT22;23057;48.554;14.454;2023-03-23T15:38:20;17.20;99.90
41939;DHT22;23057;48.554;14.454;2023-03-23T15:41:19;17.30;99.90
41939;DHT22;23057;48.554;14.454;2023-03-23T15:43:57;17.20;99.90
41939;DHT22;23057;48.554;14.454;2023-03-23T15:46:47;17.10;99.90
41939;DHT22;23057;48.554;14.454;2023-03-23T15:49:21;17.10;99.90
41939;DHT22;23057;48.554;14.454;2023-03-23T15:51:54;16.90;99.90
41939;DHT22;23057;48.554;14.454;2023-03-23T15:54:28;17.00;99.90
41939;DHT22;23057;48.554;14.454;2023-03-23T15:57:01;17.00;99.90
41939;DHT22;23057;48.554;14.454;2023-03-23T15:59:32;17.00;99.90
41939;DHT22;23057;48.554;14.454;2023-03-23T16:02:03;17.10;99.90
41939;DHT22;23057;48.554;14.454;2023-03-23T16:04:34;17.00;99.90
41939;DHT22;23057;48.554;14.454;2023-03-23T16:07:04;17.00;99.90
41939;DHT22;23057;48.554;14.454;2023-03-23T16:09:36;17.00;99.90
41939;DHT22;23057;48.554;14.454;2023-03-23T16:12:10;16.90;99.90
41939;DHT22;23057;48.554;14.454;2023-03-23T16:14:44;16.90;99.90
41939;DHT22;23057;48.554;14.454;2023-03-23T16:17:16;16.80;99.90
41939;DHT22;23057;48.554;14.454;2023-03-23T16:19:49;16.70;99.90
41939;DHT22;23057;48.554;14.454;2023-03-23T16:22:20;16.50;99.90
41939;DHT22;23057;48.554;14.454;2023-03-23T16:24:51;16.40;99.90
41939;DHT22;23057;48.554;14.454;2023-03-23T16:27:21;16.40;99.90
41939;DHT22;23057;48.554;14.454;2023-03-23T16:29:52;16.30;99.90
41939;DHT22;23057;48.554;14.454;2023-03-23T16:32:23;16.10;99.90
41939;DHT22;23057;48.554;14.454;2023-03-23T16:34:54;16.10;99.90
41939;DHT22;23057;48.554;14.454;2023-03-23T16:37:25;16.00;99.90
41939;DHT22;23057;48.554;14.454;2023-03-23T16:39:56;15.90;99.90
41939;DHT22;23057;48.554;14.454;2023-03-23T16:42:27;15.90;99.90
41939;DHT22;23057;48.554;14.454;2023-03-23T16:44:58;15.80;99.90
41939;DHT22;23057;48.554;14.454;2023-03-23T16:47:28;15.70;99.90
41939;DHT22;23057;48.554;14.454;2023-03-23T16:50:00;15.70;99.90
41939;DHT22;23057;48.554;14.454;2023-03-23T16:52:31;15.70;99.90
41939;DHT22;23057;48.554;14.454;2023-03-23T16:55:02;15.60;99.90
41939;DHT22;23057;48.554;14.454;2023-03-23T16:57:35;15.50;99.90
41939;DHT22;23057;48.554;14.454;2023-03-23T17:00:08;15.50;99.90
41939;DHT22;23057;48.554;14.454;2023-03-23T17:02:46;15.40;99.90
41939;DHT22;23057;48.554;14.454;2023-03-23T17:05:21;15.30;99.90
41939;DHT22;23057;48.554;14.454;2023-03-23T17:07:55;15.30;99.90
41939;DHT22;23057;48.554;14.454;2023-03-23T17:10:28;15.20;99.90
41939;DHT22;23057;48.554;14.454;2023-03-23T17:13:00;15.10;99.90
41939;DHT22;23057;48.554;14.454;2023-03-23T17:15:31;15.10;99.90
41939;DHT22;23057;48.554;14.454;2023-03-23T17:18:01;15.00;99.90
41939;DHT22;23057;48.554;14.454;2023-03-23T17:20:33;15.00;99.90
41939;DHT22;23057;48.554;14.454;2023-03-23T17:23:04;14.90;99.90
41939;DHT22;23057;48.554;14.454;2023-03-23T17:25:35;14.80;99.90
41939;DHT22;23057;48.554;14.454;2023-03-23T17:28:06;14.80;99.90
41939;DHT22;23057;48.554;14.454;2023-03-23T17:30:40;14.70;99.90
41939;DHT22;23057;48.554;14.454;2023-03-23T17:33:13;14.50;99.90
41939;DHT22;23057;48.554;14.454;2023-03-23T17:35:44;14.40;99.90
41939;DHT22;23057;48.554;14.454;2023-03-23T17:38:18;14.30;99.90
41939;DHT22;23057;48.554;14.454;2023-03-23T17:40:56;14.10;99.90
41939;DHT22;23057;48.554;14.454;2023-03-23T17:43:28;13.80;99.90
41939;DHT22;23057;48.554;14.454;2023-03-23T17:45:59;13.80;1.00
41939;DHT22;23057;48.554;14.454;2023-03-23T17:48:30;13.70;1.00
41939;DHT22;23057;48.554;14.454;2023-03-23T17:51:01;13.70;1.00
41939;DHT22;23057;48.554;14.454;2023-03-23T17:53:33;13.60;1.00
41939;DHT22;23057;48.554;14.454;2023-03-23T17:56:05;13.50;1.00